Time;durP1;ratioP1;P1;durP2;ratioP2;P2;SDS_P1;SDS_P2;PMS_P1;PMS_P2;Temp;Humidity;BMP_temperature;BMP_pressure;BME280_temperature;BME280_humidity;BME280_pressure;Samples;Min_cycle;Max_cycle;Signal;HPM_P1;HPM_P2
2022/12/19 00:01:14;;;;;;;26.88;12.73;;;-3275.10;83.50;;;;;;5046078;28;20057;-63
2022/12/19 00:03:52;;;;;;;24.17;11.27;;;-3275.10;83.50;;;;;;5050273;28;20045;-64
2022/12/19 00:06:20;;;;;;;24.00;11.55;;;-3275.10;83.60;;;;;;5052013;28;20363;-63
2022/12/19 00:08:49;;;;;;;25.48;12.13;;;-3275.10;83.60;;;;;;5051974;28;20506;-64
2022/12/19 00:11:18;;;;;;;28.23;12.82;;;-3275.10;83.40;;;;;;5056493;28;20055;-64
2022/12/19 00:13:45;;;;;;;27.00;11.25;;;-3275.10;83.40;;;;;;5055036;28;20071;-64
2022/12/19 00:16:13;;;;;;;25.83;11.93;;;-3275.10;83.40;;;;;;5056047;28;20140;-66
2022/12/19 00:18:41;;;;;;;25.92;12.30;;;-3275.10;83.40;;;;;;5054589;28;20056;-63
2022/12/19 00:21:11;;;;;;;25.38;12.15;;;-3275.20;83.40;;;;;;5055184;28;20048;-63
2022/12/19 00:23:38;;;;;;;26.00;12.25;;;-3275.20;83.40;;;;;;5054145;28;20048;-63
2022/12/19 00:26:16;;;;;;;27.05;12.85;;;-3275.10;83.40;;;;;;5052241;28;20055;-59
2022/12/19 00:28:45;;;;;;;29.98;12.70;;;-3275.20;83.40;;;;;;5050162;28;20046;-60
2022/12/19 00:31:12;;;;;;;29.35;13.50;;;-3275.20;83.40;;;;;;5037595;28;20053;-60
2022/12/19 00:33:39;;;;;;;23.83;12.05;;;-3275.20;83.50;;;;;;5036037;28;20061;-59
2022/12/19 00:36:11;;;;;;;29.40;12.77;;;-3275.20;83.40;;;;;;5055792;28;20049;-61
2022/12/19 00:38:46;;;;;;;26.25;11.60;;;-3275.10;83.40;;;;;;5049953;28;20179;-60
2022/12/19 00:41:16;;;;;;;29.77;12.90;;;-3275.20;83.40;;;;;;5059280;28;20048;-59
2022/12/19 00:43:43;;;;;;;31.30;13.52;;;-3275.20;83.50;;;;;;5043247;28;20471;-59
2022/12/19 00:46:13;;;;;;;29.38;12.25;;;-3275.20;83.40;;;;;;5062404;28;20144;-60
2022/12/19 00:48:41;;;;;;;29.40;12.30;;;-3275.20;83.40;;;;;;5038513;28;20059;-60
2022/12/19 00:51:12;;;;;;;29.70;12.82;;;-3275.20;83.40;;;;;;5065747;28;20051;-61
2022/12/19 00:53:42;;;;;;;28.00;12.45;;;-3275.20;83.50;;;;;;5047380;28;20141;-61
2022/12/19 00:56:13;;;;;;;30.25;14.10;;;-3275.20;83.40;;;;;;5049709;28;20444;-59
2022/12/19 00:58:40;;;;;;;30.08;13.70;;;-3275.20;83.50;;;;;;5068358;28;20047;-60
2022/12/19 01:01:09;;;;;;;29.20;12.93;;;-3275.20;83.40;;;;;;5068514;28;20044;-60
2022/12/19 01:03:36;;;;;;;27.17;12.63;;;-3275.20;83.50;;;;;;5065649;28;20056;-61
2022/12/19 01:06:05;;;;;;;33.95;13.52;;;-3275.20;83.50;;;;;;5048005;28;20493;-61
2022/12/19 01:08:33;;;;;;;29.45;12.63;;;-3275.20;83.50;;;;;;5067033;28;20050;-60
2022/12/19 01:11:00;;;;;;;28.88;12.98;;;-3275.20;83.40;;;;;;5068098;28;20040;-60
2022/12/19 01:13:30;;;;;;;32.42;13.18;;;-3275.20;83.50;;;;;;5067243;28;20052;-60
2022/12/19 01:15:56;;;;;;;28.00;11.77;;;-3275.20;83.40;;;;;;5064723;28;20041;-61
2022/12/19 01:18:23;;;;;;;28.42;12.90;;;-3275.20;83.40;;;;;;5068694;28;20055;-60
2022/12/19 01:20:50;;;;;;;26.70;14.10;;;-3275.30;83.40;;;;;;5066869;28;20044;-59
2022/12/19 01:23:17;;;;;;;29.08;13.27;;;-3275.30;83.40;;;;;;5067571;28;20044;-61
2022/12/19 01:25:52;;;;;;;28.23;12.50;;;-3275.30;83.40;;;;;;5067878;28;20049;-62
2022/12/19 01:28:19;;;;;;;29.60;13.32;;;-3275.30;83.50;;;;;;5067899;28;20055;-62
2022/12/19 01:30:45;;;;;;;28.17;12.70;;;-3275.30;83.50;;;;;;5047398;28;20048;-62
2022/12/19 01:33:14;;;;;;;30.23;13.50;;;-3275.30;83.50;;;;;;5067244;28;20495;-61
2022/12/19 01:35:42;;;;;;;28.25;12.52;;;-3275.30;83.50;;;;;;5067408;28;20157;-62
2022/12/19 01:38:13;;;;;;;29.45;12.80;;;-3275.30;83.20;;;;;;5068446;28;20479;-61
2022/12/19 01:40:40;;;;;;;29.42;12.63;;;-3275.40;83.30;;;;;;5066078;28;20045;-61
2022/12/19 01:43:13;;;;;;;26.73;13.00;;;-3275.30;83.40;;;;;;5068490;28;20077;-62
2022/12/19 01:45:40;;;;;;;31.35;13.07;;;-3275.40;83.30;;;;;;5048775;28;20048;-62
2022/12/19 01:48:17;;;;;;;28.52;12.30;;;-3275.30;83.40;;;;;;5065637;28;20379;-62
2022/12/19 01:50:52;;;;;;;25.02;12.60;;;-3275.30;83.40;;;;;;5070462;28;20036;-61
2022/12/19 01:53:21;;;;;;;23.52;11.95;;;-3275.40;83.30;;;;;;5070635;28;20064;-61
2022/12/19 01:55:49;;;;;;;28.05;12.65;;;-3275.40;83.40;;;;;;5067084;28;20399;-60
2022/12/19 01:58:19;;;;;;;28.30;12.65;;;-3275.40;83.30;;;;;;5049911;28;20131;-62
2022/12/19 02:00:46;;;;;;;28.42;12.50;;;-3275.40;83.30;;;;;;5068977;28;20041;-60
2022/12/19 02:03:18;;;;;;;30.30;13.35;;;-3275.40;83.50;;;;;;5069814;28;20048;-62
2022/12/19 02:05:45;;;;;;;27.92;12.35;;;-3275.40;83.70;;;;;;5051944;28;20040;-61
2022/12/19 02:08:13;;;;;;;24.42;12.15;;;-3275.40;83.80;;;;;;5045589;28;20059;-61
2022/12/19 02:10:40;;;;;;;29.55;13.48;;;-3275.40;84.00;;;;;;5066589;28;20051;-61
2022/12/19 02:13:08;;;;;;;29.92;13.10;;;-3275.40;83.90;;;;;;5067166;28;20049;-60
2022/12/19 02:15:45;;;;;;;28.00;12.73;;;-3275.40;84.00;;;;;;5067922;28;20066;-61
2022/12/19 02:18:20;;;;;;;26.88;12.38;;;-3275.40;84.00;;;;;;5052479;28;21466;-62
2022/12/19 02:21:20;;;;;;;27.63;12.77;;;-3275.40;84.00;;;;;;5070713;28;20124;-60
2022/12/19 02:24:23;;;;;;;25.58;12.65;;;-3275.40;84.10;;;;;;5051581;28;20045;-61
2022/12/19 02:27:03;;;;;;;25.95;12.45;;;-3275.40;84.00;;;;;;5051859;28;20451;-61
2022/12/19 02:30:07;;;;;;;24.08;12.75;;;-3275.40;84.10;;;;;;5051248;28;20083;-60
2022/12/19 02:32:48;;;;;;;26.50;11.98;;;-3275.40;84.10;;;;;;5060765;28;20151;-62
2022/12/19 02:35:25;;;;;;;27.75;12.65;;;-3275.40;84.20;;;;;;5044456;28;20056;-61
2022/12/19 02:37:58;;;;;;;31.15;13.57;;;-3275.40;84.10;;;;;;5067462;28;20044;-61
2022/12/19 02:40:30;;;;;;;27.17;12.85;;;-3275.40;84.10;;;;;;5050100;28;20059;-60
2022/12/19 02:43:01;;;;;;;27.58;12.77;;;-3275.40;84.20;;;;;;5051465;28;20121;-60
2022/12/19 02:45:33;;;;;;;30.95;13.18;;;-3275.40;84.20;;;;;;5043616;28;20106;-62
2022/12/19 02:48:04;;;;;;;30.58;13.38;;;-3275.50;84.10;;;;;;5042024;28;20045;-61
2022/12/19 02:50:39;;;;;;;28.85;13.73;;;-3275.40;84.20;;;;;;5069179;28;20097;-60
2022/12/19 02:53:06;;;;;;;30.55;13.52;;;-3275.40;84.20;;;;;;5066837;28;20064;-60
2022/12/19 02:55:39;;;;;;;27.98;13.00;;;-3275.50;84.30;;;;;;5041141;28;20058;-62
2022/12/19 02:58:42;;;;;;;28.05;12.88;;;-3275.50;84.30;;;;;;5039981;28;21571;-61
2022/12/19 03:01:23;;;;;;;26.33;12.55;;;-3275.50;84.30;;;;;;5034939;28;20049;-61
2022/12/19 03:04:03;;;;;;;28.77;12.40;;;-3275.50;84.40;;;;;;5042487;28;20127;-61
2022/12/19 03:06:38;;;;;;;30.90;13.40;;;-3275.50;84.60;;;;;;5041346;28;20094;-63
2022/12/19 03:09:10;;;;;;;24.20;12.32;;;-3275.60;84.70;;;;;;5042106;28;20044;-60
2022/12/19 03:11:41;;;;;;;28.13;12.05;;;-3275.60;84.80;;;;;;5068075;28;20462;-62
2022/12/19 03:14:09;;;;;;;;;;;-3275.60;84.90;;;;;;5039088;28;20052;-61
2022/12/19 03:16:37;;;;;;;26.25;12.48;;;-3275.60;85.20;;;;;;5059441;28;19939;-61
2022/12/19 03:19:09;;;;;;;25.02;11.77;;;-3275.60;85.30;;;;;;5049916;28;20044;-62
2022/12/19 03:21:39;;;;;;;26.00;12.85;;;-3275.60;85.20;;;;;;5066122;28;20055;-64
2022/12/19 03:24:09;;;;;;;26.67;12.63;;;-3275.60;85.30;;;;;;5063968;28;20044;-62
2022/12/19 03:26:41;;;;;;;29.50;13.27;;;-3275.60;85.40;;;;;;5049436;28;20106;-61
2022/12/19 03:29:12;;;;;;;29.30;12.43;;;-3275.60;85.50;;;;;;5067472;28;20048;-61
2022/12/19 03:31:42;;;;;;;23.92;12.85;;;-3275.60;85.60;;;;;;5065895;28;20134;-64
2022/12/19 03:34:16;;;;;;;23.30;11.90;;;-3275.60;85.60;;;;;;5067391;28;20076;-62
2022/12/19 03:36:47;;;;;;;27.08;13.40;;;-3275.60;85.90;;;;;;5064953;28;20052;-62
2022/12/19 03:39:15;;;;;;;27.42;12.98;;;-3275.60;85.50;;;;;;5063318;28;20044;-62
2022/12/19 03:44:32;;;;;;;28.33;12.27;;;-3275.60;86.00;;;;;;5066805;28;20447;-62
2022/12/19 03:47:05;;;;;;;30.23;13.32;;;-3275.70;86.00;;;;;;5069050;28;20044;-62
2022/12/19 03:49:33;;;;;;;25.58;12.57;;;-3275.70;86.00;;;;;;5069441;28;20505;-61
2022/12/19 03:52:10;;;;;;;28.77;13.98;;;-3275.70;85.70;;;;;;5067611;28;20557;-61
2022/12/19 03:54:40;;;;;;;31.65;13.55;;;-3275.70;85.90;;;;;;5068860;28;20071;-62
2022/12/19 03:57:11;;;;;;;26.33;12.05;;;-3275.70;85.80;;;;;;5069338;28;20045;-62
2022/12/19 03:59:40;;;;;;;;;;;-3275.70;86.00;;;;;;5066221;28;20044;-61
2022/12/19 04:02:08;;;;;;;23.38;10.88;;;-3275.70;86.00;;;;;;5069017;28;19925;-61
2022/12/19 04:04:43;;;;;;;25.85;12.40;;;-3275.70;85.90;;;;;;5068498;28;20045;-61
2022/12/19 04:07:12;;;;;;;29.02;12.27;;;-3275.70;85.70;;;;;;5068021;28;20067;-61
2022/12/19 04:09:41;;;;;;;24.30;12.23;;;-3275.60;85.90;;;;;;5068380;28;20056;-62
2022/12/19 04:12:13;;;;;;;27.23;12.30;;;-3275.70;86.00;;;;;;5049885;28;20040;-62
2022/12/19 04:14:41;;;;;;;31.23;12.57;;;-3275.70;86.10;;;;;;5065631;28;20515;-60
2022/12/19 04:17:19;;;;;;;24.90;12.23;;;-3275.70;86.00;;;;;;5068216;28;20037;-62
2022/12/19 04:19:54;;;;;;;27.98;12.77;;;-3275.70;86.00;;;;;;5067120;28;20058;-62
2022/12/19 04:22:25;;;;;;;23.85;12.45;;;-3275.70;85.90;;;;;;5066456;28;20055;-62
2022/12/19 04:24:54;;;;;;;22.02;11.82;;;-3275.80;85.90;;;;;;5062101;28;20045;-62
2022/12/19 04:27:21;;;;;;;24.75;12.40;;;-3275.70;85.80;;;;;;5060687;28;20056;-63
2022/12/19 04:29:51;;;;;;;27.50;13.13;;;-3275.70;85.80;;;;;;5063505;28;20538;-65
2022/12/19 04:32:19;;;;;;;28.30;12.65;;;-3275.70;85.70;;;;;;5066560;28;20040;-65
2022/12/19 04:34:45;;;;;;;28.02;12.55;;;-3275.70;85.80;;;;;;5066706;28;20064;-64
2022/12/19 04:37:14;;;;;;;26.35;12.20;;;-3275.70;85.80;;;;;;5066700;28;20144;-63
2022/12/19 04:39:41;;;;;;;26.83;12.80;;;-3275.80;85.80;;;;;;5067050;28;20457;-64
2022/12/19 04:42:08;;;;;;;27.92;13.13;;;-3275.70;85.80;;;;;;5066410;28;20052;-63
2022/12/19 04:44:34;;;;;;;27.17;13.23;;;-3275.80;85.70;;;;;;5064562;28;20049;-64
2022/12/19 04:47:01;;;;;;;25.13;11.98;;;-3275.70;85.70;;;;;;5063975;28;20048;-65
2022/12/19 04:49:28;;;;;;;23.80;12.63;;;-3275.70;85.70;;;;;;5067042;28;20094;-63
2022/12/19 04:51:55;;;;;;;26.40;12.93;;;-3275.80;85.70;;;;;;5067462;28;20103;-66
2022/12/19 04:54:23;;;;;;;26.30;12.88;;;-3275.70;85.70;;;;;;5066042;28;20049;-63
2022/12/19 04:56:50;;;;;;;29.27;14.10;;;-3275.80;85.70;;;;;;5063047;28;20051;-63
2022/12/19 04:59:17;;;;;;;28.50;13.70;;;-3275.80;85.70;;;;;;5067078;28;20063;-64
2022/12/19 05:01:44;;;;;;;23.65;11.82;;;-3275.80;85.50;;;;;;5066015;28;20059;-63
2022/12/19 05:04:11;;;;;;;26.30;12.50;;;-3275.70;85.50;;;;;;5067136;28;20403;-62
2022/12/19 05:06:38;;;;;;;23.70;12.10;;;-3275.70;85.50;;;;;;5067393;28;20072;-64
2022/12/19 05:09:05;;;;;;;25.42;12.60;;;-3275.70;85.60;;;;;;5060192;28;20048;-64
2022/12/19 05:11:33;;;;;;;25.00;12.77;;;-3275.70;85.60;;;;;;5063895;28;20083;-63
2022/12/19 05:14:00;;;;;;;25.88;11.75;;;-3275.70;85.60;;;;;;5063444;28;20141;-64
2022/12/19 05:16:27;;;;;;;27.27;13.65;;;-3275.80;85.60;;;;;;5065604;28;20314;-66
2022/12/19 05:18:54;;;;;;;24.52;12.30;;;-3275.70;85.60;;;;;;5068755;28;20064;-65
2022/12/19 05:21:22;;;;;;;29.08;13.32;;;-3275.80;85.60;;;;;;5069873;28;20049;-65
2022/12/19 05:23:51;;;;;;;27.40;13.55;;;-3275.80;85.60;;;;;;5065726;28;20041;-64
2022/12/19 05:26:18;;;;;;;25.73;12.27;;;-3275.80;85.70;;;;;;5064826;28;20059;-64
2022/12/19 05:28:47;;;;;;;25.52;12.88;;;-3275.80;85.60;;;;;;5069735;28;20159;-65
2022/12/19 05:31:17;;;;;;;25.45;12.27;;;-3275.80;85.70;;;;;;5067194;28;20549;-64
2022/12/19 05:33:44;;;;;;;28.20;14.07;;;-3275.80;85.60;;;;;;5069327;28;20048;-64
2022/12/19 05:36:12;;;;;;;27.75;13.43;;;-3275.80;85.70;;;;;;5069286;28;20389;-64
2022/12/19 05:38:39;;;;;;;27.25;13.57;;;-3275.90;85.70;;;;;;5066826;28;20132;-64
2022/12/19 05:41:07;;;;;;;28.65;12.50;;;-3275.80;85.80;;;;;;5065597;28;20053;-61
2022/12/19 05:43:34;;;;;;;27.23;13.40;;;-3275.80;85.80;;;;;;5062982;28;20041;-60
2022/12/19 05:46:04;;;;;;;27.55;13.70;;;-3275.90;85.70;;;;;;5064990;28;20067;-62
2022/12/19 05:48:31;;;;;;;28.83;13.48;;;-3275.80;85.80;;;;;;5063505;28;20044;-61
2022/12/19 05:50:58;;;;;;;25.23;12.43;;;-3275.80;85.80;;;;;;5063766;28;20052;-61
2022/12/19 05:53:26;;;;;;;27.73;13.02;;;-3275.90;85.80;;;;;;5059139;28;20052;-62
2022/12/19 05:55:53;;;;;;;23.42;11.48;;;-3275.90;85.80;;;;;;5043893;28;20048;-62
2022/12/19 05:58:20;;;;;;;23.92;13.57;;;-3275.90;85.80;;;;;;5065492;28;20048;-63
2022/12/19 06:00:47;;;;;;;27.40;12.10;;;-3275.90;85.90;;;;;;5062470;28;20048;-63
2022/12/19 06:03:15;;;;;;;23.63;11.77;;;-3275.90;85.80;;;;;;5067956;28;20082;-62
2022/12/19 06:05:42;;;;;;;27.80;12.75;;;-3275.90;85.80;;;;;;5065522;28;20079;-62
2022/12/19 06:08:09;;;;;;;23.63;11.77;;;-3275.90;85.80;;;;;;5066104;28;20048;-62
2022/12/19 06:10:36;;;;;;;29.27;13.77;;;-3275.90;85.70;;;;;;5064854;28;20047;-63
2022/12/19 06:13:03;;;;;;;27.10;12.68;;;-3275.90;85.70;;;;;;5066415;28;20131;-62
2022/12/19 06:15:29;;;;;;;25.95;13.20;;;-3275.90;85.70;;;;;;5065502;28;20089;-62
2022/12/19 06:17:56;;;;;;;28.40;12.80;;;-3275.90;85.70;;;;;;5063626;28;20510;-63
2022/12/19 06:20:24;;;;;;;28.17;12.23;;;-3276.00;85.70;;;;;;5065934;28;20048;-62
2022/12/19 06:22:51;;;;;;;25.95;12.38;;;-3276.00;85.70;;;;;;5050551;28;20055;-61
2022/12/19 06:25:18;;;;;;;27.80;13.52;;;-3276.00;85.70;;;;;;5045518;28;20075;-61
2022/12/19 06:27:45;;;;;;;25.83;13.05;;;-3275.90;85.90;;;;;;5066142;28;20052;-61
2022/12/19 06:30:13;;;;;;;28.38;12.77;;;-3275.90;85.90;;;;;;5058185;28;20045;-61
2022/12/19 06:32:40;;;;;;;30.70;14.32;;;-3276.00;85.80;;;;;;5064205;28;20556;-62
2022/12/19 06:35:08;;;;;;;25.67;13.85;;;-3276.00;85.90;;;;;;5063978;28;20056;-61
2022/12/19 06:37:36;;;;;;;27.80;12.63;;;-3276.00;86.00;;;;;;5061257;28;20056;-64
2022/12/19 06:40:06;;;;;;;28.13;13.50;;;-3276.00;86.10;;;;;;5066147;28;20064;-62
2022/12/19 06:42:32;;;;;;;28.08;13.40;;;-3276.00;86.10;;;;;;5063105;28;20056;-61
2022/12/19 06:44:59;;;;;;;27.70;13.23;;;-3276.00;86.00;;;;;;5066401;28;20056;-61
2022/12/19 06:47:25;;;;;;;28.15;13.85;;;-3276.00;86.10;;;;;;5070183;28;20058;-62
2022/12/19 06:49:54;;;;;;;25.88;12.88;;;-3276.00;86.10;;;;;;5069430;28;20139;-61
2022/12/19 06:52:21;;;;;;;28.90;13.90;;;-3276.10;86.20;;;;;;5070748;28;20053;-71
2022/12/19 06:54:49;;;;;;;26.98;14.27;;;-3276.00;86.10;;;;;;5068771;28;20084;-70
2022/12/19 06:57:16;;;;;;;31.95;14.93;;;-3276.10;86.20;;;;;;5070590;28;20044;-69
2022/12/19 06:59:43;;;;;;;25.38;12.60;;;-3276.10;86.00;;;;;;5065237;28;20052;-68
2022/12/19 07:02:22;;;;;;;26.45;12.50;;;-3276.10;86.00;;;;;;5068522;28;20045;-69
2022/12/19 07:04:52;;;;;;;27.10;14.05;;;-3276.10;86.00;;;;;;5065064;28;20094;-69
2022/12/19 07:07:20;;;;;;;30.70;13.55;;;-3276.10;86.00;;;;;;5069069;28;20041;-69
2022/12/19 07:09:47;;;;;;;28.63;13.57;;;-3276.10;86.00;;;;;;5065354;28;20052;-68
2022/12/19 07:12:15;;;;;;;26.05;14.15;;;-3276.10;86.00;;;;;;5063300;28;20475;-68
2022/12/19 07:14:42;;;;;;;25.48;12.90;;;-3276.10;85.90;;;;;;5063062;28;20202;-68
2022/12/19 07:17:10;;;;;;;27.13;13.82;;;-3276.10;86.00;;;;;;5066047;28;20375;-69
2022/12/19 07:19:37;;;;;;;25.35;12.80;;;-3276.10;86.00;;;;;;5066829;28;20059;-69
2022/12/19 07:22:05;;;;;;;26.85;13.80;;;-3276.10;86.00;;;;;;5065410;28;20048;-69
2022/12/19 07:24:34;;;;;;;31.27;14.32;;;-3276.10;86.20;;;;;;5063919;28;20040;-69
2022/12/19 07:27:01;;;;;;;29.27;15.48;;;-3276.10;86.20;;;;;;5065225;28;20048;-68
2022/12/19 07:29:29;;;;;;;27.38;14.13;;;-3276.10;86.20;;;;;;5066835;28;20258;-69
2022/12/19 07:31:56;;;;;;;29.25;13.68;;;-3276.10;86.20;;;;;;5068139;28;20041;-69
2022/12/19 07:34:23;;;;;;;29.17;14.82;;;-3276.10;86.30;;;;;;5048364;28;20044;-68
2022/12/19 07:36:51;;;;;;;29.58;14.00;;;-3276.10;86.20;;;;;;5064369;28;20044;-69
2022/12/19 07:39:18;;;;;;;30.08;14.93;;;-3276.10;86.30;;;;;;5068980;28;20054;-69
2022/12/19 07:41:45;;;;;;;28.35;13.57;;;-3276.10;86.30;;;;;;5063010;28;20048;-68
2022/12/19 07:44:14;;;;;;;28.75;14.73;;;-3276.20;86.40;;;;;;5067917;28;20043;-68
2022/12/19 07:46:44;;;;;;;29.08;15.32;;;-3276.20;86.30;;;;;;5064311;28;20056;-71
2022/12/19 07:49:11;;;;;;;28.98;14.25;;;-3276.20;86.50;;;;;;5065686;28;20041;-71
2022/12/19 07:51:38;;;;;;;27.92;13.48;;;-3276.20;86.50;;;;;;5066466;28;20048;-72
2022/12/19 07:54:05;;;;;;;31.35;14.13;;;-3276.20;86.50;;;;;;5063869;28;20570;-71
2022/12/19 07:56:32;;;;;;;29.30;15.30;;;-3276.20;86.50;;;;;;5064192;28;20080;-71
2022/12/19 07:58:59;;;;;;;28.45;14.20;;;-3276.20;86.40;;;;;;5060929;28;20068;-70
2022/12/19 08:01:26;;;;;;;28.30;14.65;;;-3276.20;86.50;;;;;;5064908;28;20056;-69
2022/12/19 08:03:55;;;;;;;27.35;13.73;;;-3276.30;86.40;;;;;;5062432;28;20423;-71
2022/12/19 08:06:25;;;;;;;31.73;14.90;;;-3276.30;86.50;;;;;;5061873;28;20538;-70
2022/12/19 08:08:52;;;;;;;28.75;13.25;;;-3276.30;86.50;;;;;;5064648;28;20051;-71
2022/12/19 08:11:25;;;;;;;27.75;13.68;;;-3276.30;86.50;;;;;;5063858;28;23237;-70
2022/12/19 08:13:53;;;;;;;26.42;14.38;;;-3276.30;86.60;;;;;;5064154;28;20137;-70
2022/12/19 08:16:20;;;;;;;26.70;13.30;;;-3276.30;86.60;;;;;;5065577;28;20411;-64
2022/12/19 08:18:47;;;;;;;29.52;14.65;;;-3276.30;86.70;;;;;;5065222;28;20045;-64
2022/12/19 08:21:16;;;;;;;29.50;13.88;;;-3276.30;86.60;;;;;;5064413;28;20094;-65
2022/12/19 08:23:44;;;;;;;26.90;13.35;;;-3276.40;86.60;;;;;;5064478;28;20055;-63
2022/12/19 08:26:15;;;;;;;29.33;13.98;;;-3276.30;86.70;;;;;;5063438;28;20060;-62
2022/12/19 08:28:46;;;;;;;29.90;14.18;;;-3276.30;86.70;;;;;;5065376;28;20044;-63
2022/12/19 08:31:15;;;;;;;29.70;14.77;;;-3276.40;86.80;;;;;;5065953;28;20055;-62
2022/12/19 08:33:43;;;;;;;29.85;13.90;;;-3276.30;86.80;;;;;;5062602;28;20494;-63
2022/12/19 08:36:12;;;;;;;30.10;15.65;;;-3276.40;86.80;;;;;;5067681;28;20536;-63
2022/12/19 08:38:40;;;;;;;29.60;14.45;;;-3276.40;86.80;;;;;;5064995;28;20048;-63
2022/12/19 08:41:08;;;;;;;29.98;14.57;;;-3276.40;86.80;;;;;;5061220;28;20049;-62
2022/12/19 08:43:35;;;;;;;28.02;14.50;;;-3276.40;86.80;;;;;;5056165;28;20037;-62
2022/12/19 08:46:02;;;;;;;32.38;15.32;;;-3276.40;86.70;;;;;;5050159;28;20037;-62
2022/12/19 08:48:29;;;;;;;28.52;15.02;;;-3276.40;86.80;;;;;;5051902;28;20057;-62
2022/12/19 08:50:58;;;;;;;30.13;14.25;;;-3276.50;87.00;;;;;;5049597;28;20073;-63
2022/12/19 08:53:27;;;;;;;28.45;14.23;;;-3276.50;87.10;;;;;;5050333;28;20067;-63
2022/12/19 08:55:56;;;;;;;31.83;14.20;;;-3276.50;87.20;;;;;;5056241;28;20052;-62
2022/12/19 08:58:23;;;;;;;27.75;14.00;;;-3276.50;87.10;;;;;;5059002;28;20054;-62
2022/12/19 09:00:51;;;;;;;32.83;15.63;;;-3276.50;87.20;;;;;;5053563;28;20064;-59
2022/12/19 09:03:18;;;;;;;33.03;15.20;;;-3276.50;87.20;;;;;;5058387;28;20132;-60
2022/12/19 09:05:46;;;;;;;33.67;14.32;;;-3276.50;87.20;;;;;;5053196;28;20044;-60
2022/12/19 09:08:13;;;;;;;31.15;14.80;;;-3276.50;87.40;;;;;;5055347;28;20495;-60
2022/12/19 09:10:40;;;;;;;35.65;16.33;;;-3276.60;87.40;;;;;;5057335;28;20048;-61
2022/12/19 09:13:08;;;;;;;28.23;14.25;;;-3276.60;87.40;;;;;;5055276;28;20045;-61
2022/12/19 09:15:35;;;;;;;29.63;14.07;;;-3276.60;87.50;;;;;;5055390;28;20041;-60
2022/12/19 09:18:02;;;;;;;32.65;14.93;;;-3276.60;87.50;;;;;;5048750;28;20517;-59
2022/12/19 09:20:29;;;;;;;28.20;15.30;;;-3276.60;87.40;;;;;;5055261;28;20045;-60
2022/12/19 09:22:56;;;;;;;31.08;15.27;;;-3276.70;87.60;;;;;;5059032;28;20041;-60
2022/12/19 09:25:23;;;;;;;29.05;14.82;;;-3276.70;87.70;;;;;;5051998;28;20050;-69
2022/12/19 09:27:50;;;;;;;28.50;15.07;;;-3276.70;87.60;;;;;;5057543;28;20045;-70
2022/12/19 09:30:18;;;;;;;27.67;15.13;;;-3276.70;87.80;;;;;;5052841;28;20051;-69
2022/12/19 09:32:46;;;;;;;31.17;14.07;;;0.00;87.70;;;;;;5057699;28;20118;-69
2022/12/19 09:35:13;;;;;;;32.75;15.98;;;0.00;87.90;;;;;;5056268;28;20072;-62
2022/12/19 09:37:40;;;;;;;31.48;14.80;;;0.00;87.80;;;;;;5057118;28;20057;-59
2022/12/19 09:40:11;;;;;;;32.28;15.20;;;0.00;87.90;;;;;;5061124;28;20048;-61
2022/12/19 09:43:00;;;;;;;35.45;15.52;;;0.00;87.90;;;;;;5069274;28;20048;-61
2022/12/19 09:45:54;;;;;;;31.77;15.27;;;0.00;87.80;;;;;;5061451;28;20048;-60
2022/12/19 09:48:21;;;;;;;28.80;14.38;;;0.00;87.90;;;;;;5067259;28;20053;-60
2022/12/19 09:50:56;;;;;;;35.75;15.80;;;0.10;88.00;;;;;;5066796;28;20131;-60
2022/12/19 09:53:28;;;;;;;33.13;16.65;;;0.10;88.10;;;;;;5063654;28;20048;-60
2022/12/19 09:55:58;;;;;;;33.08;14.90;;;0.10;87.90;;;;;;5066210;28;20102;-66
2022/12/19 09:58:32;;;;;;;34.92;15.48;;;0.20;88.00;;;;;;5063880;28;20079;-60
2022/12/19 10:01:06;;;;;;;31.50;15.90;;;0.20;88.00;;;;;;5066708;28;20068;-62
2022/12/19 10:03:39;;;;;;;31.60;16.33;;;0.20;87.90;;;;;;5066472;28;20118;-61
2022/12/19 10:06:16;;;;;;;30.88;15.43;;;0.20;87.90;;;;;;5064633;28;20048;-61
2022/12/19 10:08:44;;;;;;;32.30;15.60;;;0.20;87.90;;;;;;5064928;28;20044;-60
2022/12/19 10:11:27;;;;;;;30.95;16.00;;;0.20;88.00;;;;;;5067943;28;20032;-60
2022/12/19 10:14:09;;;;;;;28.95;14.32;;;0.20;88.00;;;;;;5061068;28;20060;-62
2022/12/19 10:16:57;;;;;;;33.72;15.73;;;0.20;88.00;;;;;;5063213;28;20052;-61
2022/12/19 10:19:37;;;;;;;35.75;15.57;;;0.20;87.90;;;;;;5067956;28;20132;-61
2022/12/19 10:22:13;;;;;;;32.63;16.65;;;0.20;87.90;;;;;;5066974;28;20044;-61
2022/12/19 10:25:07;;;;;;;33.45;15.77;;;0.30;87.90;;;;;;5065396;28;20582;-61
2022/12/19 10:27:40;;;;;;;31.55;15.70;;;0.30;87.90;;;;;;5059935;28;20048;-62
2022/12/19 10:30:15;;;;;;;30.38;15.23;;;0.30;87.70;;;;;;5068048;28;20063;-60
2022/12/19 10:32:56;;;;;;;34.97;16.40;;;0.30;87.80;;;;;;5064851;28;20049;-61
2022/12/19 10:35:29;;;;;;;35.72;16.70;;;0.30;87.90;;;;;;5066911;28;20062;-64
2022/12/19 10:38:13;;;;;;;30.35;15.68;;;0.30;87.80;;;;;;5069391;28;20067;-64
2022/12/19 10:40:43;;;;;;;32.90;16.95;;;0.40;87.90;;;;;;5067272;28;20533;-63
2022/12/19 10:43:18;;;;;;;32.35;15.75;;;0.40;87.90;;;;;;5067872;28;20080;-63
2022/12/19 10:45:49;;;;;;;28.52;15.23;;;0.40;87.90;;;;;;5064894;28;20098;-63
2022/12/19 10:48:20;;;;;;;32.03;15.57;;;0.40;88.00;;;;;;5066416;28;20052;-64
2022/12/19 10:50:47;;;;;;;33.63;15.85;;;0.50;87.90;;;;;;5067223;28;20056;-63
2022/12/19 10:53:15;;;;;;;32.03;16.50;;;0.50;87.90;;;;;;5064272;28;20059;-64
2022/12/19 10:55:45;;;;;;;30.95;15.30;;;0.40;87.80;;;;;;5066665;28;20044;-63
2022/12/19 10:58:19;;;;;;;35.70;16.52;;;0.40;87.90;;;;;;5067874;28;20049;-63
2022/12/19 11:01:14;;;;;;;33.60;16.23;;;0.50;88.00;;;;;;5066113;28;20040;-63
2022/12/19 11:03:44;;;;;;;31.35;15.90;;;0.50;88.10;;;;;;5038386;28;20098;-65
2022/12/19 11:06:43;;;;;;;34.85;15.98;;;0.50;88.10;;;;;;5066704;28;20056;-62
2022/12/19 11:09:19;;;;;;;29.95;14.95;;;0.50;88.10;;;;;;5060971;28;20458;-62
2022/12/19 11:11:47;;;;;;;30.70;15.10;;;0.60;88.20;;;;;;5068881;28;20052;-64
2022/12/19 11:14:22;;;;;;;30.70;15.57;;;0.50;88.30;;;;;;5066362;28;20387;-62
2022/12/19 11:16:49;;;;;;;34.72;16.17;;;0.50;88.10;;;;;;5066284;28;20056;-63
2022/12/19 11:19:26;;;;;;;31.92;15.98;;;0.50;88.30;;;;;;5069670;28;20040;-62
2022/12/19 11:21:53;;;;;;;31.90;15.23;;;0.50;88.30;;;;;;5066098;28;20044;-64
2022/12/19 11:24:25;;;;;;;32.30;15.98;;;0.50;88.50;;;;;;5068757;28;20056;-64
2022/12/19 11:26:53;;;;;;;31.25;15.23;;;0.60;88.40;;;;;;5065328;28;20056;-68
2022/12/19 11:29:23;;;;;;;29.17;15.00;;;0.60;88.50;;;;;;5065789;28;20056;-68
2022/12/19 11:31:56;;;;;;;32.92;16.33;;;0.60;88.50;;;;;;5065030;28;20090;-68
2022/12/19 11:34:26;;;;;;;30.00;14.77;;;0.70;88.60;;;;;;5064940;28;20056;-68
2022/12/19 11:36:57;;;;;;;28.38;14.20;;;0.70;88.50;;;;;;5065146;28;20052;-68
2022/12/19 11:39:32;;;;;;;32.55;14.70;;;0.70;88.60;;;;;;5065763;28;20486;-68
2022/12/19 11:42:05;;;;;;;31.30;14.82;;;0.70;88.40;;;;;;5062353;28;20059;-67
2022/12/19 11:44:38;;;;;;;29.83;14.35;;;0.70;88.50;;;;;;5063732;28;20066;-67
2022/12/19 11:47:16;;;;;;;27.98;14.13;;;0.70;88.60;;;;;;5063711;28;20048;-68
2022/12/19 11:49:48;;;;;;;27.00;14.43;;;0.70;88.60;;;;;;5065540;28;20048;-67
2022/12/19 11:52:23;;;;;;;32.85;15.38;;;0.70;88.50;;;;;;5067744;28;20037;-68
2022/12/19 11:54:57;;;;;;;27.67;14.10;;;0.70;88.60;;;;;;5065345;28;20063;-68
2022/12/19 11:57:25;;;;;;;30.17;14.95;;;0.70;88.80;;;;;;5066033;28;20067;-68
2022/12/19 11:59:53;;;;;;;32.45;15.32;;;0.70;88.70;;;;;;5065469;28;20512;-67
2022/12/19 12:02:48;;;;;;;30.90;14.98;;;0.70;88.70;;;;;;5059057;28;20048;-68
2022/12/19 12:05:40;;;;;;;28.40;14.25;;;0.70;88.70;;;;;;5065943;28;20072;-69
2022/12/19 12:08:27;;;;;;;26.15;13.77;;;0.70;88.80;;;;;;5063372;28;20047;-69
2022/12/19 12:10:59;;;;;;;27.60;14.38;;;0.70;88.90;;;;;;5065775;28;20041;-69
2022/12/19 12:13:38;;;;;;;28.27;14.63;;;0.80;88.90;;;;;;5065562;28;20044;-68
2022/12/19 12:16:10;;;;;;;31.52;15.07;;;0.80;88.90;;;;;;5063337;28;20487;-67
2022/12/19 12:18:51;;;;;;;30.80;14.30;;;0.80;88.80;;;;;;5065170;28;20410;-67
2022/12/19 12:21:23;;;;;;;30.60;14.32;;;0.80;88.70;;;;;;5064032;28;20065;-67
2022/12/19 12:24:08;;;;;;;33.90;16.30;;;0.80;88.70;;;;;;5064012;28;20048;-68
2022/12/19 12:26:40;;;;;;;30.08;14.18;;;0.80;88.80;;;;;;5061081;28;20060;-68
2022/12/19 12:29:16;;;;;;;30.48;15.88;;;0.80;88.70;;;;;;5067070;28;20047;-69